Time;durP1;ratioP1;P1;durP2;ratioP2;P2;SDS_P1;SDS_P2;PMS_P1;PMS_P2;Temp;Humidity;BMP_temperature;BMP_pressure;BME280_temperature;BME280_humidity;BME280_pressure;Samples;Min_cycle;Max_cycle;Signal;HPM_P1;HPM_P2
2022/10/10 00:00:44;;;;;;;0.20;0.20;;;11.00;99.90;;;;;;4960346;28;20026;-78
2022/10/10 00:03:10;;;;;;;0.50;0.50;;;10.90;99.90;;;;;;4978538;28;20102;-78
2022/10/10 00:05:49;;;;;;;0.10;0.10;;;10.60;99.90;;;;;;4982348;28;20053;-78
2022/10/10 00:08:16;;;;;;;0.10;0.10;;;10.90;99.90;;;;;;4982643;28;20090;-78
2022/10/10 00:10:47;;;;;;;0.20;0.20;;;10.90;99.90;;;;;;4978407;28;20054;-76
2022/10/10 00:13:20;;;;;;;0.10;0.10;;;10.90;99.90;;;;;;4981568;28;20061;-76
2022/10/10 00:15:49;;;;;;;0.40;0.40;;;10.80;99.90;;;;;;4987187;28;20164;-77
2022/10/10 00:18:17;;;;;;;0.98;0.98;;;10.90;99.90;;;;;;5019987;28;20034;-78
2022/10/10 00:20:48;;;;;;;0.38;0.38;;;10.80;99.90;;;;;;5043274;28;20043;-77
2022/10/10 00:23:15;;;;;;;1.00;1.00;;;10.80;99.90;;;;;;5100451;28;20087;-78
2022/10/10 00:25:41;;;;;;;0.15;0.15;;;10.80;99.90;;;;;;5098802;28;20032;-77
2022/10/10 00:28:15;;;;;;;0.10;0.10;;;8.40;99.90;;;;;;5098273;28;20228;-77
2022/10/10 00:30:41;;;;;;;0.10;0.10;;;10.70;99.90;;;;;;5100096;28;20043;-78
2022/10/10 00:33:07;;;;;;;0.20;0.20;;;10.70;99.90;;;;;;5099490;28;20074;-77
2022/10/10 00:35:33;;;;;;;0.95;0.95;;;11.10;99.90;;;;;;5097897;28;20408;-77
2022/10/10 00:37:59;;;;;;;0.15;0.15;;;10.70;99.90;;;;;;5102668;28;20024;-78
2022/10/10 00:40:29;;;;;;;10.90;10.25;;;10.70;99.90;;;;;;5100530;28;20097;-78
2022/10/10 00:42:56;;;;;;;0.22;0.22;;;10.70;99.90;;;;;;5103625;28;20203;-77
2022/10/10 00:45:46;;;;;;;0.10;0.10;;;10.70;99.90;;;;;;5100142;28;20107;-78
2022/10/10 00:48:19;;;;;;;0.17;0.17;;;10.60;99.90;;;;;;5099312;28;20024;-77
2022/10/10 00:51:10;;;;;;;0.17;0.17;;;10.70;99.90;;;;;;5101979;28;20039;-77
2022/10/10 00:54:12;;;;;;;0.25;0.25;;;10.70;99.90;;;;;;5096225;28;20024;-78
2022/10/10 00:56:49;;;;;;;0.10;0.10;;;10.70;99.90;;;;;;5100335;28;20208;-78
2022/10/10 00:59:21;;;;;;;2.45;2.30;;;10.70;99.90;;;;;;5096891;28;20101;-77
2022/10/10 01:01:48;;;;;;;0.10;0.10;;;10.70;99.90;;;;;;5096824;28;20023;-78
2022/10/10 01:04:32;;;;;;;0.10;0.10;;;7.80;99.90;;;;;;5103943;28;20040;-77
2022/10/10 01:06:59;;;;;;;1.63;1.58;;;10.80;99.90;;;;;;5103142;28;20016;-77
2022/10/10 01:09:26;;;;;;;0.45;0.45;;;10.80;99.90;;;;;;5102455;28;20020;-77
2022/10/10 01:12:17;;;;;;;0.40;0.40;;;10.80;99.90;;;;;;5100016;28;20028;-78
2022/10/10 01:14:52;;;;;;;0.43;0.43;;;10.80;99.90;;;;;;5101001;28;20052;-77
2022/10/10 01:17:21;;;;;;;0.68;0.68;;;10.80;99.90;;;;;;5098421;28;20088;-78
2022/10/10 01:19:56;;;;;;;0.20;0.20;;;10.70;99.90;;;;;;5103549;28;20032;-78
2022/10/10 01:22:25;;;;;;;1.13;1.10;;;10.70;99.90;;;;;;5096275;28;20107;-77
2022/10/10 01:25:16;;;;;;;0.28;0.28;;;10.70;99.90;;;;;;5093014;28;20085;-77
2022/10/10 01:27:55;;;;;;;0.10;0.10;;;10.60;99.90;;;;;;5095147;28;20040;-78
2022/10/10 01:30:29;;;;;;;0.20;0.20;;;10.60;99.90;;;;;;5095238;28;20350;-78
2022/10/10 01:33:12;;;;;;;0.95;0.95;;;9.70;99.90;;;;;;5101611;28;20062;-78
2022/10/10 01:36:03;;;;;;;0.10;0.10;;;10.50;99.90;;;;;;5099125;28;20116;-78
2022/10/10 01:39:09;;;;;;;1.65;1.55;;;10.40;99.90;;;;;;5103822;28;20711;-78
2022/10/10 01:42:17;;;;;;;0.15;0.15;;;10.40;99.90;;;;;;5108003;28;20020;-78
2022/10/10 01:44:52;;;;;;;0.20;0.20;;;10.40;99.90;;;;;;5107453;28;20043;-77
2022/10/10 01:47:25;;;;;;;0.57;0.57;;;10.30;99.90;;;;;;5110651;28;20024;-77
2022/10/10 01:49:57;;;;;;;3.85;3.42;;;10.30;99.90;;;;;;5108751;28;20016;-77
2022/10/10 01:52:22;;;;;;;0.20;0.20;;;10.30;99.90;;;;;;5109173;28;20356;-78
2022/10/10 01:55:01;;;;;;;0.55;0.55;;;10.30;99.90;;;;;;5106577;28;20028;-77
2022/10/10 01:57:53;;;;;;;0.20;0.20;;;10.20;99.90;;;;;;5106997;28;20024;-77
2022/10/10 02:00:19;;;;;;;0.30;0.30;;;10.20;99.90;;;;;;5094452;28;20084;-77
2022/10/10 02:03:01;;;;;;;1.80;1.75;;;10.70;99.90;;;;;;5109011;28;20306;-77
2022/10/10 02:05:39;;;;;;;0.10;0.10;;;10.30;99.90;;;;;;5106541;28;20064;-77
2022/10/10 02:08:58;;;;;;;0.00;0.00;;;10.90;99.90;;;;;;5109158;28;20016;-78
2022/10/10 02:11:27;;;;;;;0.10;0.10;;;10.30;99.90;;;;;;5002921;28;20026;-77
2022/10/10 02:14:19;;;;;;;0.10;0.10;;;10.30;99.90;;;;;;5000332;28;20472;-78
2022/10/10 02:16:56;;;;;;;1.95;1.85;;;10.30;99.90;;;;;;5020247;28;20066;-78
2022/10/10 02:19:32;;;;;;;0.28;0.28;;;10.30;99.90;;;;;;5022140;28;20041;-77
2022/10/10 02:22:16;;;;;;;0.17;0.17;;;10.30;99.90;;;;;;5003404;28;20045;-77
2022/10/10 02:24:48;;;;;;;0.10;0.10;;;10.40;99.90;;;;;;5018803;28;20033;-78
2022/10/10 02:27:39;;;;;;;0.10;0.10;;;10.40;99.90;;;;;;5003663;28;20042;-78
2022/10/10 02:30:10;;;;;;;0.20;0.20;;;10.40;99.90;;;;;;5018160;28;20030;-78
2022/10/10 02:32:36;;;;;;;0.20;0.20;;;11.00;99.90;;;;;;5005825;28;20025;-77
2022/10/10 02:35:11;;;;;;;0.10;0.10;;;10.40;99.90;;;;;;5021918;28;20050;-77
2022/10/10 02:37:39;;;;;;;0.10;0.10;;;10.60;99.90;;;;;;5019567;28;20026;-78
2022/10/10 02:40:09;;;;;;;1.65;1.55;;;10.30;99.90;;;;;;5000896;28;20046;-77
2022/10/10 02:42:36;;;;;;;0.10;0.10;;;10.40;99.90;;;;;;5014108;28;20030;-78
2022/10/10 02:45:05;;;;;;;0.20;0.20;;;10.40;99.90;;;;;;4995063;28;20113;-77
2022/10/10 02:47:32;;;;;;;0.43;0.43;;;10.40;99.90;;;;;;5064543;28;20058;-78
2022/10/10 02:50:01;;;;;;;1.00;1.00;;;11.00;99.90;;;;;;5097207;28;20055;-78
2022/10/10 02:52:33;;;;;;;0.25;0.25;;;10.40;99.90;;;;;;5098712;28;20016;-78
2022/10/10 02:54:59;;;;;;;0.20;0.20;;;10.40;99.90;;;;;;5095630;28;20158;-77
2022/10/10 02:57:25;;;;;;;0.10;0.10;;;10.40;99.90;;;;;;5093383;28;20078;-78
2022/10/10 02:59:53;;;;;;;0.17;0.17;;;10.40;99.90;;;;;;5098626;28;20036;-78
2022/10/10 03:02:20;;;;;;;0.10;0.10;;;10.40;99.90;;;;;;5096092;28;20020;-77
2022/10/10 03:04:46;;;;;;;0.10;0.10;;;10.50;99.90;;;;;;5093842;28;20048;-77
2022/10/10 03:07:17;;;;;;;1.30;1.30;;;10.50;99.90;;;;;;5101797;28;20039;-77
2022/10/10 03:09:46;;;;;;;0.10;0.10;;;10.50;99.90;;;;;;5102610;28;20020;-77
2022/10/10 03:12:23;;;;;;;1.90;1.85;;;10.40;99.90;;;;;;5104634;28;20063;-78
2022/10/10 03:14:49;;;;;;;0.15;0.15;;;10.40;99.90;;;;;;5107664;28;20180;-75
2022/10/10 03:17:17;;;;;;;0.10;0.10;;;10.30;99.90;;;;;;5108851;28;20016;-76
2022/10/10 03:19:51;;;;;;;0.10;0.10;;;10.30;99.90;;;;;;5109028;28;20116;-78
2022/10/10 03:22:17;;;;;;;3.13;3.03;;;10.30;99.90;;;;;;5106208;28;20050;-75
2022/10/10 03:24:43;;;;;;;0.10;0.10;;;10.30;99.90;;;;;;5108810;28;20466;-78
2022/10/10 03:27:09;;;;;;;1.95;1.85;;;10.30;99.90;;;;;;5106285;28;20032;-75
2022/10/10 03:29:35;;;;;;;0.20;0.20;;;10.40;99.90;;;;;;5107858;28;20036;-76
2022/10/10 03:32:00;;;;;;;14.85;13.75;;;10.40;99.90;;;;;;5108128;28;20030;-77
2022/10/10 03:34:26;;;;;;;0.40;0.40;;;10.40;99.90;;;;;;5107674;28;20016;-78
2022/10/10 03:36:52;;;;;;;0.75;0.75;;;10.40;99.90;;;;;;5108735;28;20039;-78
2022/10/10 03:39:18;;;;;;;0.32;0.32;;;10.40;99.90;;;;;;5107682;28;20097;-77
2022/10/10 03:41:43;;;;;;;0.10;0.10;;;10.40;99.90;;;;;;5106973;28;20050;-77
2022/10/10 03:44:09;;;;;;;0.20;0.20;;;9.80;99.90;;;;;;5090239;28;20043;-80
2022/10/10 03:46:35;;;;;;;0.10;0.10;;;10.50;99.90;;;;;;5105473;28;20414;-77
2022/10/10 03:49:01;;;;;;;0.10;0.10;;;10.20;99.90;;;;;;5106040;28;20346;-78
2022/10/10 03:51:28;;;;;;;0.10;0.10;;;10.30;99.90;;;;;;5100194;28;20280;-78
2022/10/10 03:53:59;;;;;;;0.30;0.30;;;7.40;99.90;;;;;;5099665;28;20581;-78
2022/10/10 03:56:28;;;;;;;1.23;1.10;;;10.20;99.90;;;;;;5095782;28;20027;-77
2022/10/10 03:58:59;;;;;;;4.20;3.97;;;10.20;99.90;;;;;;5095033;28;20127;-77
2022/10/10 04:01:28;;;;;;;0.32;0.32;;;10.20;99.90;;;;;;5093774;28;20027;-77
2022/10/10 04:03:55;;;;;;;0.10;0.10;;;10.20;99.90;;;;;;5093843;28;20024;-78
2022/10/10 04:06:22;;;;;;;0.22;0.22;;;10.10;99.90;;;;;;5094909;28;20512;-78
2022/10/10 04:08:48;;;;;;;0.10;0.10;;;10.10;99.90;;;;;;5105855;28;20036;-78
2022/10/10 04:11:18;;;;;;;0.15;0.15;;;10.10;99.90;;;;;;5101667;28;20025;-78
2022/10/10 04:13:45;;;;;;;5.78;5.47;;;10.00;99.90;;;;;;5105385;28;20026;-77
2022/10/10 04:16:11;;;;;;;7.13;6.80;;;10.00;99.90;;;;;;5102099;28;20067;-78
2022/10/10 04:18:43;;;;;;;6.85;6.43;;;10.00;99.90;;;;;;5106035;28;20016;-77
2022/10/10 04:21:11;;;;;;;0.15;0.15;;;10.00;99.90;;;;;;5106478;28;20016;-77
2022/10/10 04:23:41;;;;;;;4.13;3.75;;;10.00;99.90;;;;;;5102976;28;20022;-78
2022/10/10 04:26:13;;;;;;;0.15;0.15;;;10.00;99.90;;;;;;5102865;28;20016;-78
2022/10/10 04:28:40;;;;;;;0.10;0.10;;;10.00;99.90;;;;;;5105864;28;20050;-77
2022/10/10 04:31:10;;;;;;;0.10;0.10;;;9.90;99.90;;;;;;5105084;28;20143;-77
2022/10/10 04:33:39;;;;;;;0.10;0.10;;;9.90;99.90;;;;;;5104336;28;20027;-78
2022/10/10 04:36:08;;;;;;;0.10;0.10;;;10.00;99.90;;;;;;5102308;28;20032;-78
2022/10/10 04:38:39;;;;;;;0.15;0.15;;;9.90;99.90;;;;;;5105915;28;20024;-77
2022/10/10 04:41:09;;;;;;;0.13;0.13;;;10.00;99.90;;;;;;5104211;28;20035;-77
2022/10/10 04:43:35;;;;;;;0.10;0.10;;;9.90;99.90;;;;;;5105540;28;20021;-78
2022/10/10 04:46:03;;;;;;;0.20;0.20;;;9.90;99.90;;;;;;5104309;28;20380;-78
2022/10/10 04:48:35;;;;;;;0.65;0.65;;;10.00;99.90;;;;;;5106207;28;20020;-77
2022/10/10 04:51:02;;;;;;;0.10;0.10;;;10.00;99.90;;;;;;5105887;28;20112;-78
2022/10/10 04:53:32;;;;;;;0.10;0.10;;;10.00;99.90;;;;;;5109378;28;20048;-77
2022/10/10 04:55:58;;;;;;;0.10;0.10;;;10.40;99.90;;;;;;5101639;28;20677;-78
2022/10/10 04:58:24;;;;;;;6.30;6.05;;;10.00;99.90;;;;;;5100185;28;20035;-77
2022/10/10 05:00:53;;;;;;;0.05;0.05;;;10.00;99.90;;;;;;5100481;28;20056;-78
2022/10/10 05:03:28;;;;;;;0.10;0.10;;;10.00;99.90;;;;;;5104206;28;20024;-78
2022/10/10 05:05:57;;;;;;;0.52;0.52;;;10.30;99.90;;;;;;5099608;28;20036;-78
2022/10/10 05:08:23;;;;;;;0.20;0.20;;;10.00;99.90;;;;;;5104432;28;20035;-78
2022/10/10 05:10:52;;;;;;;0.20;0.20;;;10.00;99.90;;;;;;5096168;28;20086;-77
2022/10/10 05:13:20;;;;;;;4.60;4.40;;;10.10;99.90;;;;;;5097922;28;20043;-77
2022/10/10 05:15:51;;;;;;;5.43;5.03;;;10.00;99.90;;;;;;5099136;28;20058;-78
2022/10/10 05:18:18;;;;;;;0.68;0.68;;;8.20;99.90;;;;;;5094153;28;20047;-78
2022/10/10 05:20:52;;;;;;;0.47;0.47;;;9.90;99.90;;;;;;5085504;28;20024;-78
2022/10/10 05:23:22;;;;;;;0.15;0.15;;;10.10;99.90;;;;;;5100436;28;20020;-78
2022/10/10 05:25:49;;;;;;;0.10;0.10;;;10.20;99.90;;;;;;5080963;28;20054;-77
2022/10/10 05:28:16;;;;;;;0.10;0.10;;;10.20;99.90;;;;;;5085320;28;20036;-77
2022/10/10 05:30:44;;;;;;;2.00;1.90;;;10.30;99.90;;;;;;5084888;28;20032;-77
2022/10/10 05:33:10;;;;;;;0.20;0.20;;;10.30;99.90;;;;;;5086530;28;20111;-78
2022/10/10 05:35:45;;;;;;;0.22;0.22;;;10.40;99.90;;;;;;5082761;28;20137;-77
2022/10/10 05:38:13;;;;;;;31.33;14.02;;;10.40;99.90;;;;;;5099220;28;20471;-78
2022/10/10 05:40:39;;;;;;;0.10;0.10;;;11.00;99.90;;;;;;5095050;28;20051;-78
2022/10/10 05:43:05;;;;;;;0.20;0.20;;;10.50;99.90;;;;;;5093689;28;20016;-78
2022/10/10 05:45:35;;;;;;;1.65;1.58;;;10.60;99.90;;;;;;5095060;28;20339;-78
2022/10/10 05:48:01;;;;;;;0.30;0.30;;;10.60;99.90;;;;;;5098111;28;20051;-78
2022/10/10 05:50:37;;;;;;;0.30;0.30;;;10.70;99.90;;;;;;5094342;28;20028;-75
2022/10/10 05:53:14;;;;;;;0.30;0.30;;;10.60;99.90;;;;;;5105835;28;20023;-78
2022/10/10 05:55:47;;;;;;;0.17;0.17;;;10.70;99.90;;;;;;5088158;28;20055;-78
2022/10/10 05:58:16;;;;;;;0.20;0.20;;;10.70;99.90;;;;;;5107015;28;20028;-78
2022/10/10 06:00:51;;;;;;;0.50;0.50;;;10.60;99.90;;;;;;5106009;28;20039;-78
2022/10/10 06:03:18;;;;;;;0.17;0.17;;;11.10;99.90;;;;;;5088184;28;20036;-77
2022/10/10 06:05:49;;;;;;;0.73;0.73;;;8.30;99.90;;;;;;5099672;28;20036;-75
2022/10/10 06:08:18;;;;;;;0.20;0.20;;;10.90;99.90;;;;;;5083359;28;20035;-80
2022/10/10 06:10:47;;;;;;;0.38;0.38;;;8.60;99.90;;;;;;5097984;28;20237;-77
2022/10/10 06:13:18;;;;;;;0.20;0.20;;;11.50;99.90;;;;;;5098257;28;20391;-78
2022/10/10 06:15:44;;;;;;;0.32;0.32;;;11.10;99.90;;;;;;5061327;28;20325;-76
2022/10/10 06:18:15;;;;;;;0.20;0.20;;;13.00;99.90;;;;;;5079590;28;20028;-76
2022/10/10 06:20:45;;;;;;;0.20;0.20;;;11.20;99.90;;;;;;5081297;28;20035;-76
2022/10/10 06:23:11;;;;;;;0.45;0.45;;;9.80;99.90;;;;;;5079593;28;20028;-76
2022/10/10 06:25:37;;;;;;;6.40;5.88;;;;;;;;;;5076115;28;20059;-77
2022/10/10 06:28:03;;;;;;;0.50;0.50;;;11.30;99.90;;;;;;5089474;28;20028;-76
2022/10/10 06:30:30;;;;;;;0.30;0.30;;;11.20;99.90;;;;;;5074584;28;20022;-76
2022/10/10 06:32:57;;;;;;;1.77;1.67;;;11.30;99.90;;;;;;5091012;28;20311;-78
2022/10/10 06:35:23;;;;;;;0.32;0.32;;;8.90;99.90;;;;;;5073488;28;20048;-76
2022/10/10 06:37:49;;;;;;;0.10;0.10;;;11.30;99.90;;;;;;5072585;28;20050;-76
2022/10/10 06:40:15;;;;;;;1.52;1.42;;;11.40;99.90;;;;;;5076137;28;20036;-77
2022/10/10 06:42:41;;;;;;;2.38;2.28;;;11.50;99.90;;;;;;5094603;28;20183;-76
2022/10/10 06:45:09;;;;;;;0.75;0.75;;;11.50;99.90;;;;;;5094415;28;20174;-76
2022/10/10 06:47:35;;;;;;;1.70;1.60;;;11.60;99.90;;;;;;5076898;28;20268;-78
2022/10/10 06:50:06;;;;;;;0.20;0.20;;;11.60;99.90;;;;;;5096038;28;20024;-76
2022/10/10 06:52:32;;;;;;;1.27;1.27;;;11.60;99.90;;;;;;5081437;28;20411;-77
2022/10/10 06:54:58;;;;;;;0.63;0.63;;;11.50;99.90;;;;;;5095427;28;20074;-77
2022/10/10 06:57:27;;;;;;;0.20;0.20;;;11.60;99.90;;;;;;5097773;28;20028;-76
2022/10/10 06:59:53;;;;;;;0.10;0.10;;;11.70;99.90;;;;;;5077123;28;20086;-76
2022/10/10 07:02:19;;;;;;;0.60;0.60;;;11.80;99.90;;;;;;5076188;28;20024;-77
2022/10/10 07:04:44;;;;;;;0.47;0.47;;;12.30;99.90;;;;;;5086800;28;20116;-76
2022/10/10 07:07:10;;;;;;;0.47;0.47;;;11.90;99.90;;;;;;5072065;28;20523;-76
2022/10/10 07:09:36;;;;;;;6.90;6.45;;;12.10;99.90;;;;;;5066842;28;20020;-77
2022/10/10 07:12:02;;;;;;;0.20;0.20;;;13.10;99.90;;;;;;5067041;28;20020;-76
2022/10/10 07:14:27;;;;;;;8.10;2.17;;;12.20;99.90;;;;;;5080815;28;20040;-82
2022/10/10 07:16:53;;;;;;;0.50;0.50;;;12.20;99.90;;;;;;5079569;28;20654;-77
2022/10/10 07:19:20;;;;;;;5.43;5.20;;;12.30;99.90;;;;;;5079403;28;20032;-77
2022/10/10 07:21:46;;;;;;;9.65;2.65;;;12.30;99.90;;;;;;5062637;28;20048;-78
2022/10/10 07:24:12;;;;;;;0.35;0.35;;;12.40;99.90;;;;;;5065597;28;20032;-76
2022/10/10 07:26:38;;;;;;;2.55;2.45;;;12.60;99.90;;;;;;5080902;28;20482;-77
2022/10/10 07:29:04;;;;;;;0.30;0.30;;;12.70;99.90;;;;;;5063753;28;20024;-80
2022/10/10 07:31:31;;;;;;;0.30;0.30;;;12.80;99.90;;;;;;5080280;28;20048;-85
2022/10/10 07:33:57;;;;;;;0.30;0.30;;;13.00;99.90;;;;;;5061785;28;20024;-77
2022/10/10 07:36:23;;;;;;;0.25;0.25;;;13.00;99.90;;;;;;5062199;28;20414;-78
2022/10/10 07:38:53;;;;;;;2.65;2.25;;;13.20;99.90;;;;;;5080466;28;20425;-84
2022/10/10 07:41:20;;;;;;;0.45;0.45;;;12.90;99.90;;;;;;5045672;28;20328;-85
2022/10/10 07:43:45;;;;;;;1.45;1.42;;;13.50;99.90;;;;;;5078411;28;20363;-80
2022/10/10 07:46:17;;;;;;;7.47;7.05;;;13.50;99.90;;;;;;5079564;28;20028;-81
2022/10/10 07:48:43;;;;;;;0.38;0.38;;;13.60;99.90;;;;;;5106488;28;20035;-87
2022/10/10 07:51:09;;;;;;;0.20;0.20;;;13.70;99.90;;;;;;5105391;28;20028;-83
2022/10/10 07:53:35;;;;;;;0.73;0.73;;;13.90;99.90;;;;;;5081636;28;20023;-81
2022/10/10 07:56:06;;;;;;;2.35;2.25;;;13.90;99.90;;;;;;5082748;28;20581;-81
2022/10/10 07:58:33;;;;;;;4.15;3.85;;;14.10;99.90;;;;;;5082686;28;20019;-78
2022/10/10 08:01:07;;;;;;;3.08;2.83;;;13.90;99.90;;;;;;5102238;28;20031;-79
2022/10/10 08:03:33;;;;;;;11.68;4.47;;;14.10;99.90;;;;;;5084455;28;20099;-89
2022/10/10 08:06:03;;;;;;;3.85;3.53;;;14.10;99.90;;;;;;5080128;28;20177;-79
2022/10/10 08:08:29;;;;;;;5.63;5.30;;;14.20;99.90;;;;;;5080662;28;20115;-84
2022/10/10 08:10:56;;;;;;;0.38;0.38;;;14.10;99.90;;;;;;5080462;28;20024;-78
2022/10/10 08:13:22;;;;;;;0.77;0.77;;;14.10;99.90;;;;;;5080217;28;20392;-80
2022/10/10 08:15:50;;;;;;;0.20;0.20;;;14.10;99.90;;;;;;5082191;28;20712;-84
2022/10/10 08:18:17;;;;;;;6.45;5.97;;;14.20;99.90;;;;;;5081680;28;20642;-84
2022/10/10 08:20:42;;;;;;;7.78;2.13;;;14.20;99.90;;;;;;5081060;28;20509;-83
2022/10/10 08:23:08;;;;;;;0.30;0.30;;;14.20;99.90;;;;;;5079466;28;20119;-82
2022/10/10 08:25:34;;;;;;;0.40;0.40;;;14.30;99.90;;;;;;5079641;28;20592;-79
2022/10/10 08:28:00;;;;;;;0.20;0.20;;;14.20;99.90;;;;;;5079181;28;20021;-80
2022/10/10 08:30:29;;;;;;;0.15;0.15;;;14.30;99.90;;;;;;5081854;28;20031;-77
2022/10/10 08:32:54;;;;;;;0.70;0.70;;;15.50;99.90;;;;;;5077132;28;20032;-77
2022/10/10 08:35:20;;;;;;;0.95;0.95;;;14.20;99.90;;;;;;5079418;28;20296;-81
2022/10/10 08:37:46;;;;;;;2.45;2.28;;;14.20;99.90;;;;;;5077976;28;20415;-85
2022/10/10 08:40:18;;;;;;;3.10;2.90;;;14.30;99.90;;;;;;5079151;28;20035;-78
2022/10/10 08:42:48;;;;;;;1.98;1.88;;;14.20;99.90;;;;;;5077070;28;20021;-77
2022/10/10 08:45:22;;;;;;;0.30;0.30;;;14.20;99.90;;;;;;5076232;28;20028;-81
2022/10/10 08:47:57;;;;;;;2.15;2.05;;;14.20;99.90;;;;;;5078285;28;20039;-80
2022/10/10 08:50:30;;;;;;;2.92;2.83;;;14.20;99.90;;;;;;5076691;28;20527;-81
2022/10/10 08:53:02;;;;;;;4.72;4.28;;;14.30;99.90;;;;;;5079867;28;20386;-79
2022/10/10 08:55:32;;;;;;;1.70;1.60;;;14.30;99.90;;;;;;5080148;28;20268;-79
2022/10/10 08:58:23;;;;;;;0.73;0.73;;;11.70;99.90;;;;;;5079334;28;20391;-83
2022/10/10 09:00:55;;;;;;;1.75;1.65;;;12.40;99.90;;;;;;5078255;28;20028;-79
2022/10/10 09:03:29;;;;;;;1.40;1.30;;;14.40;99.90;;;;;;5080032;28;20031;-85
2022/10/10 09:06:04;;;;;;;0.15;0.15;;;13.50;99.90;;;;;;5097032;28;20044;-79
2022/10/10 09:08:38;;;;;;;0.28;0.28;;;14.60;99.90;;;;;;5086053;28;20212;-85
2022/10/10 09:11:07;;;;;;;0.77;0.77;;;14.70;99.90;;;;;;5104716;28;20506;-76
2022/10/10 09:13:41;;;;;;;2.65;1.85;;;14.80;99.90;;;;;;5103443;28;20023;-78
2022/10/10 09:16:29;;;;;;;2.25;2.05;;;17.30;99.90;;;;;;5081421;28;20208;-76
2022/10/10 09:19:09;;;;;;;0.80;0.80;;;15.70;99.90;;;;;;5081698;28;20015;-79
2022/10/10 09:21:36;;;;;;;0.30;0.30;;;16.30;99.90;;;;;;5103657;28;20019;-77
2022/10/10 09:24:24;;;;;;;9.32;2.83;;;16.70;99.90;;;;;;5101154;28;20020;-80
2022/10/10 09:26:58;;;;;;;4.90;4.47;;;17.10;99.90;;;;;;5100113;28;20015;-79
2022/10/10 09:29:30;;;;;;;0.82;0.82;;;17.40;99.90;;;;;;5103381;28;20140;-77
2022/10/10 09:32:24;;;;;;;4.70;4.38;;;17.70;99.90;;;;;;5101923;28;20023;-77
2022/10/10 09:34:55;;;;;;;5.13;4.72;;;15.00;99.90;;;;;;5117046;28;20617;-78
2022/10/10 09:37:36;;;;;;;1.17;1.13;;;18.20;99.90;;;;;;5100022;28;20028;-81
2022/10/10 09:40:17;;;;;;;1.20;1.20;;;18.30;99.90;;;;;;5103729;28;20366;-76
2022/10/10 09:42:44;;;;;;;8.05;2.33;;;18.40;99.90;;;;;;5080102;28;20277;-79
2022/10/10 09:45:30;;;;;;;4.68;3.17;;;18.70;99.90;;;;;;5098377;28;20448;-81
2022/10/10 09:47:56;;;;;;;3.95;3.63;;;18.70;99.90;;;;;;5097376;28;20097;-78
2022/10/10 09:50:23;;;;;;;0.82;0.82;;;18.30;99.90;;;;;;5099898;28;20020;-82
2022/10/10 09:52:50;;;;;;;0.63;0.63;;;18.20;99.90;;;;;;5099689;28;20044;-77
2022/10/10 09:55:23;;;;;;;1.30;0.82;;;18.10;99.90;;;;;;5100423;28;20548;-78
2022/10/10 09:57:52;;;;;;;0.50;0.50;;;17.60;99.90;;;;;;5100217;28;20451;-79
2022/10/10 10:00:17;;;;;;;0.10;0.10;;;17.40;99.90;;;;;;5081656;28;20331;-77
2022/10/10 10:02:47;;;;;;;0.45;0.45;;;17.40;99.90;;;;;;5085393;28;20058;-78
2022/10/10 10:05:25;;;;;;;0.60;0.60;;;17.30;99.90;;;;;;5086150;28;20059;-80
2022/10/10 10:07:51;;;;;;;3.00;2.83;;;17.40;99.90;;;;;;5105424;28;20050;-76
2022/10/10 10:10:23;;;;;;;1.75;1.65;;;17.40;99.90;;;;;;5085815;28;20089;-77
2022/10/10 10:12:51;;;;;;;0.50;0.50;;;17.50;99.90;;;;;;5085534;28;20023;-84
2022/10/10 10:15:25;;;;;;;6.40;6.00;;;17.70;99.90;;;;;;5103909;28;20028;-78
2022/10/10 10:18:09;;;;;;;1.92;1.75;;;18.40;99.90;;;;;;5085595;28;20700;-77
2022/10/10 10:20:41;;;;;;;1.95;1.85;;;18.00;99.90;;;;;;5106894;28;20089;-83
2022/10/10 10:23:31;;;;;;;0.65;0.65;;;18.30;99.90;;;;;;5104023;28;20226;-85
2022/10/10 10:26:23;;;;;;;1.05;1.02;;;18.40;99.90;;;;;;5085806;28;20035;-77
2022/10/10 10:28:51;;;;;;;0.17;0.17;;;18.60;99.90;;;;;;5103356;28;20250;-86
2022/10/10 10:31:23;;;;;;;1.85;1.75;;;18.30;99.90;;;;;;5102877;28;20294;-79
2022/10/10 10:34:15;;;;;;;2.45;1.80;;;19.00;99.90;;;;;;5085813;28;20118;-78
2022/10/10 10:36:46;;;;;;;0.40;0.40;;;19.10;99.90;;;;;;5084053;28;20228;-79
2022/10/10 10:39:31;;;;;;;2.85;1.67;;;19.20;99.90;;;;;;5084459;28;20016;-79
2022/10/10 10:42:37;;;;;;;1.98;1.88;;;19.50;99.90;;;;;;5102743;28;20023;-79
2022/10/10 10:45:57;;;;;;;0.60;0.60;;;19.40;99.90;;;;;;4998345;28;20131;-82
2022/10/10 10:48:22;;;;;;;3.70;2.28;;;20.20;99.90;;;;;;4923766;29;20525;-79
2022/10/10 10:51:12;;;;;;;2.53;2.33;;;20.20;99.90;;;;;;4923346;29;20060;-77
2022/10/10 10:53:58;;;;;;;1.90;1.80;;;20.30;99.90;;;;;;4849371;29;20041;-77
2022/10/10 10:56:49;;;;;;;1.08;1.08;;;20.40;99.90;;;;;;4864951;29;21173;-81
2022/10/10 10:59:27;;;;;;;9.57;4.53;;;20.80;99.90;;;;;;4849047;29;20030;-77
2022/10/10 11:02:06;;;;;;;0.20;0.20;;;18.80;99.90;;;;;;4848888;29;20033;-81
2022/10/10 11:04:52;;;;;;;2.75;2.53;;;21.30;99.90;;;;;;4864936;29;20132;-87
2022/10/10 11:07:21;;;;;;;1.00;1.00;;;21.60;99.90;;;;;;4853256;29;20029;-78
2022/10/10 11:09:54;;;;;;;0.93;0.93;;;21.40;99.50;;;;;;4850123;29;20049;-82
2022/10/10 11:12:47;;;;;;;0.90;0.90;;;21.60;99.70;;;;;;4850920;29;20037;-78
2022/10/10 11:15:16;;;;;;;3.30;2.53;;;21.90;99.40;;;;;;4848828;29;20095;-81
2022/10/10 11:17:48;;;;;;;1.45;1.40;;;22.00;99.50;;;;;;4853554;29;20033;-78
2022/10/10 11:20:26;;;;;;;1.35;1.25;;;22.20;99.40;;;;;;4873734;29;20609;-78
2022/10/10 11:23:06;;;;;;;0.68;0.65;;;22.40;97.70;;;;;;4986560;28;20176;-78
2022/10/10 11:25:40;;;;;;;1.88;1.77;;;22.10;98.20;;;;;;4998349;28;20050;-85
2022/10/10 11:28:19;;;;;;;1.02;0.77;;;22.40;98.70;;;;;;4997754;28;20030;-77
2022/10/10 11:31:07;;;;;;;1.80;1.70;;;22.50;97.60;;;;;;5041938;28;20135;-85
2022/10/10 11:33:39;;;;;;;0.45;0.45;;;22.60;97.40;;;;;;5082969;28;20572;-82
2022/10/10 11:36:13;;;;;;;0.88;0.80;;;22.80;96.80;;;;;;5082826;28;20027;-81
2022/10/10 11:38:48;;;;;;;3.13;2.92;;;23.00;96.60;;;;;;5102132;28;20047;-80
2022/10/10 11:41:33;;;;;;;0.30;0.30;;;23.10;95.40;;;;;;5083806;28;20024;-79
2022/10/10 11:44:07;;;;;;;1.35;0.95;;;23.30;95.60;;;;;;5102367;28;20539;-83
2022/10/10 11:46:45;;;;;;;0.32;0.32;;;23.50;95.00;;;;;;5081763;28;20081;-78
2022/10/10 11:49:12;;;;;;;0.55;0.55;;;23.80;95.00;;;;;;5083639;28;20425;-78
2022/10/10 11:51:59;;;;;;;0.57;0.57;;;23.80;94.20;;;;;;5102259;28;20240;-77
2022/10/10 11:54:38;;;;;;;0.20;0.20;;;24.00;94.70;;;;;;5082508;28;20118;-78
2022/10/10 11:57:11;;;;;;;0.52;0.47;;;24.00;92.90;;;;;;5101725;28;20098;-79
2022/10/10 11:59:59;;;;;;;1.35;1.00;;;21.20;92.20;;;;;;5099701;28;20024;-78
2022/10/10 12:02:35;;;;;;;0.20;0.20;;;23.90;93.20;;;;;;5081513;28;20036;-77
2022/10/10 12:05:04;;;;;;;0.32;0.32;;;23.70;93.20;;;;;;5080641;28;20043;-77
2022/10/10 12:07:46;;;;;;;0.20;0.20;;;23.70;93.70;;;;;;5098504;28;20529;-78
2022/10/10 12:10:26;;;;;;;0.98;0.82;;;24.00;93.10;;;;;;5083027;28;20031;-76
2022/10/10 12:12:56;;;;;;;1.35;1.30;;;24.20;92.00;;;;;;5080776;28;20127;-76
2022/10/10 12:15:34;;;;;;;0.50;0.50;;;24.20;92.50;;;;;;5081869;28;20074;-79
2022/10/10 12:18:01;;;;;;;6.78;1.70;;;24.20;92.30;;;;;;5100814;28;20223;-84
2022/10/10 12:20:26;;;;;;;0.93;0.93;;;24.20;92.00;;;;;;5080760;28;20019;-77
2022/10/10 12:23:30;;;;;;;1.00;1.00;;;24.20;92.50;;;;;;5081282;28;20024;-76
2022/10/10 12:25:57;;;;;;;0.75;0.75;;;24.20;92.30;;;;;;4979454;28;20534;-81
2022/10/10 12:28:35;;;;;;;0.15;0.15;;;24.30;91.90;;;;;;4979090;28;20044;-78
2022/10/10 12:31:04;;;;;;;0.57;0.57;;;24.40;91.70;;;;;;4997995;28;20551;-85
2022/10/10 12:33:32;;;;;;;1.23;1.02;;;24.50;91.90;;;;;;4979188;28;20407;-77
2022/10/10 12:36:19;;;;;;;0.55;0.55;;;24.70;91.60;;;;;;4979928;28;20099;-87
2022/10/10 12:39:07;;;;;;;0.10;0.10;;;24.80;90.80;;;;;;4980255;28;20290;-77
2022/10/10 12:41:41;;;;;;;0.30;0.20;;;24.80;91.40;;;;;;4978844;28;20504;-80
2022/10/10 12:44:34;;;;;;;0.47;0.47;;;24.90;90.60;;;;;;4983562;28;20030;-79
2022/10/10 12:47:15;;;;;;;4.63;3.85;;;25.10;90.10;;;;;;4996268;28;20033;-85
2022/10/10 12:50:05;;;;;;;0.17;0.17;;;25.10;90.40;;;;;;4996908;28;20414;-81
2022/10/10 12:52:49;;;;;;;0.47;0.47;;;25.30;89.60;;;;;;4995434;28;20060;-84
2022/10/10 12:55:29;;;;;;;0.88;0.40;;;25.60;86.60;;;;;;4980591;28;20128;-79
2022/10/10 12:58:29;;;;;;;3.55;1.58;;;25.50;87.30;;;;;;5000387;28;20604;-88
2022/10/10 13:00:59;;;;;;;0.10;0.10;;;25.70;87.90;;;;;;4966839;28;20036;-83
2022/10/10 13:03:37;;;;;;;1.13;1.05;;;26.00;86.10;;;;;;5035645;28;20140;-83
2022/10/10 13:06:24;;;;;;;0.90;0.90;;;26.10;84.90;;;;;;5034826;28;20602;-76
2022/10/10 13:08:52;;;;;;;1.00;0.95;;;26.10;85.70;;;;;;5019133;28;20140;-77
2022/10/10 13:11:18;;;;;;;0.57;0.57;;;25.90;85.30;;;;;;5036904;28;20438;-82
2022/10/10 13:13:55;;;;;;;0.32;0.30;;;25.70;85.10;;;;;;5020136;28;20029;-77
2022/10/10 13:16:26;;;;;;;0.82;0.63;;;25.60;85.30;;;;;;5037260;28;20098;-87